Time;durP1;ratioP1;P1;durP2;ratioP2;P2;SDS_P1;SDS_P2;PMS_P1;PMS_P2;Temp;Humidity;BMP_temperature;BMP_pressure;BME280_temperature;BME280_humidity;BME280_pressure;Samples;Min_cycle;Max_cycle;Signal;HPM_P1;HPM_P2
2022/03/30 00:01:56;;;;;;;17.55;5.40;;;;;;;4.74;66.94;95956.72;5113146;28;20404;-63
2022/03/30 00:04:22;;;;;;;19.00;5.10;;;;;;;4.67;67.32;95956.88;5113088;28;20512;-63
2022/03/30 00:06:48;;;;;;;12.68;5.97;;;;;;;4.65;67.98;95955.22;5113099;28;20381;-63
2022/03/30 00:09:13;;;;;;;17.80;5.18;;;;;;;4.70;67.80;95952.50;5113088;28;20024;-63
2022/03/30 00:11:39;;;;;;;11.43;4.70;;;;;;;4.69;67.27;95956.84;5112955;28;20077;-63
2022/03/30 00:14:04;;;;;;;12.45;5.07;;;;;;;4.70;66.78;95957.69;5113128;28;20031;-63
2022/03/30 00:16:30;;;;;;;20.77;7.60;;;;;;;4.60;66.94;95957.06;5113079;28;20024;-63
2022/03/30 00:18:56;;;;;;;14.27;6.63;;;;;;;4.60;66.62;95954.47;5113074;28;20026;-63
2022/03/30 00:21:21;;;;;;;14.80;5.43;;;;;;;4.47;67.12;95949.56;5112938;28;20028;-63
2022/03/30 00:23:47;;;;;;;11.38;6.25;;;;;;;4.40;67.55;95942.84;5112896;28;20030;-63
2022/03/30 00:26:13;;;;;;;17.13;5.70;;;;;;;4.45;67.27;95935.78;5112931;28;20015;-63
2022/03/30 00:28:38;;;;;;;15.07;5.85;;;;;;;4.47;67.76;95936.63;5112956;28;20503;-63
2022/03/30 00:31:04;;;;;;;11.30;4.93;;;;;;;4.48;67.83;95937.50;5112932;28;20500;-63
2022/03/30 00:33:30;;;;;;;16.95;5.53;;;;;;;4.49;67.34;95941.78;5113518;28;20538;-63
2022/03/30 00:35:55;;;;;;;11.57;5.03;;;;;;;4.47;67.14;95946.13;5116535;28;20473;-63
2022/03/30 00:38:21;;;;;;;24.20;5.75;;;;;;;4.42;66.99;95941.03;5116609;28;20031;-63
2022/03/30 00:40:48;;;;;;;11.63;5.55;;;;;;;4.41;66.86;95940.22;5116295;28;20043;-63
2022/03/30 00:43:14;;;;;;;16.25;5.88;;;;;;;4.37;66.98;95935.13;5116370;28;20050;-63
2022/03/30 00:45:40;;;;;;;16.30;5.90;;;;;;;4.29;68.32;95933.56;5116339;28;20477;-63
2022/03/30 00:48:06;;;;;;;13.60;6.10;;;;;;;4.21;69.16;95937.22;5116347;28;20038;-62
2022/03/30 00:50:32;;;;;;;11.95;5.35;;;;;;;4.11;69.50;95932.25;5116345;28;20470;-64
2022/03/30 00:52:58;;;;;;;16.25;6.50;;;;;;;4.18;69.49;95930.34;5116200;28;20020;-64
2022/03/30 00:55:25;;;;;;;14.80;6.07;;;;;;;4.21;68.34;95932.88;5116235;28;20442;-63
2022/03/30 00:57:53;;;;;;;13.73;5.50;;;;;;;4.17;68.04;95928.66;5116005;28;20019;-63
2022/03/30 01:00:19;;;;;;;14.57;5.75;;;;;;;4.10;68.07;95925.38;5115987;28;20022;-64
2022/03/30 01:02:47;;;;;;;20.13;5.22;;;;;;;4.07;68.43;95928.03;5115989;28;20032;-63
2022/03/30 01:05:14;;;;;;;12.75;5.32;;;;;;;4.09;68.13;95925.41;5116000;28;20023;-63
2022/03/30 01:07:40;;;;;;;12.60;5.25;;;;;;;4.13;68.24;95914.91;5115920;28;20053;-63
2022/03/30 01:10:08;;;;;;;15.05;6.68;;;;;;;4.11;68.94;95921.03;5115953;28;20024;-63
2022/03/30 01:12:38;;;;;;;14.13;6.50;;;;;;;4.13;69.18;95921.84;5115881;28;20016;-64
2022/03/30 01:15:06;;;;;;;17.17;7.47;;;;;;;4.15;69.66;95922.66;5115878;28;20440;-63
2022/03/30 01:17:31;;;;;;;17.52;6.47;;;;;;;4.18;69.11;95917.41;5115767;28;20385;-63
2022/03/30 01:19:57;;;;;;;17.70;7.45;;;;;;;4.15;68.20;95915.75;5115595;28;20058;-63
2022/03/30 01:22:23;;;;;;;16.38;6.15;;;;;;;4.11;68.01;95923.63;5115503;28;20076;-63
2022/03/30 01:24:48;;;;;;;14.85;5.68;;;;;;;4.08;67.92;95923.69;5115664;28;20051;-63
2022/03/30 01:27:14;;;;;;;9.15;5.38;;;;;;;4.02;68.86;95924.69;5115549;28;20070;-63
2022/03/30 01:32:28;;;;;;;11.02;5.40;;;;;;;3.87;68.14;95916.38;5115501;28;20035;-63
2022/03/30 01:34:59;;;;;;;13.50;4.55;;;;;;;3.86;68.93;95926.75;5115387;28;20106;-63
2022/03/30 01:37:28;;;;;;;12.88;5.72;;;;;;;3.88;69.11;95919.78;5115453;28;20054;-63
2022/03/30 01:39:55;;;;;;;13.00;4.97;;;;;;;3.85;68.47;95919.88;5115343;28;20024;-63
2022/03/30 01:42:21;;;;;;;10.35;5.07;;;;;;;3.72;69.00;95916.69;5115052;28;20508;-63
2022/03/30 01:44:46;;;;;;;11.77;5.88;;;;;;;3.57;69.61;95920.41;5115115;28;20020;-63
2022/03/30 01:47:12;;;;;;;16.23;6.22;;;;;;;3.54;69.82;95919.63;5115212;28;20122;-63
2022/03/30 01:49:38;;;;;;;16.98;6.40;;;;;;;3.50;70.95;95925.75;5115099;28;20077;-63
2022/03/30 01:52:04;;;;;;;11.27;5.90;;;;;;;3.47;71.26;95924.94;5115086;28;20024;-63
2022/03/30 01:54:35;;;;;;;17.73;6.30;;;;;;;3.40;71.66;95912.13;5115099;28;20098;-63
2022/03/30 01:57:00;;;;;;;16.60;5.97;;;;;;;3.46;71.27;95915.50;5115020;28;20063;-63
2022/03/30 01:59:26;;;;;;;14.23;5.75;;;;;;;3.47;71.08;95918.03;5114872;28;20417;-63
2022/03/30 02:01:52;;;;;;;10.18;5.80;;;;;;;3.48;70.79;95919.75;5114942;28;20024;-63
2022/03/30 02:04:18;;;;;;;13.48;6.65;;;;;;;3.43;70.68;95924.13;5114884;28;20476;-63
2022/03/30 02:06:43;;;;;;;14.52;6.18;;;;;;;3.38;70.89;95919.06;5114954;28;20024;-63
2022/03/30 02:09:12;;;;;;;17.83;6.40;;;;;;;3.32;71.50;95919.19;5114720;28;20032;-63
2022/03/30 02:11:38;;;;;;;14.13;5.72;;;;;;;3.29;72.11;95922.66;5114627;28;20066;-63
2022/03/30 02:14:05;;;;;;;17.15;6.07;;;;;;;3.29;72.06;95927.84;5114682;28;20024;-63
2022/03/30 02:16:31;;;;;;;13.38;6.38;;;;;;;3.32;71.84;95926.09;5114612;28;20019;-63
2022/03/30 02:18:56;;;;;;;11.52;6.30;;;;;;;3.29;72.08;95929.59;5114529;28;20023;-63
2022/03/30 02:21:24;;;;;;;10.63;5.93;;;;;;;3.31;72.26;95932.97;5114350;28;20074;-63
2022/03/30 02:23:51;;;;;;;13.15;5.80;;;;;;;3.25;72.54;95926.19;5114360;28;20040;-63
2022/03/30 02:26:17;;;;;;;13.82;6.32;;;;;;;3.27;71.87;95921.84;5114465;28;20012;-63
2022/03/30 02:28:44;;;;;;;18.00;5.95;;;;;;;3.24;71.47;95929.66;5114438;28;20023;-63
2022/03/30 02:31:11;;;;;;;16.63;6.47;;;;;;;3.24;71.63;95926.22;5114233;28;20080;-63
2022/03/30 02:33:37;;;;;;;14.63;5.85;;;;;;;3.26;71.46;95933.09;5114247;28;20477;-63
2022/03/30 02:36:03;;;;;;;11.75;6.38;;;;;;;3.27;71.69;95931.34;5114204;28;20031;-63
2022/03/30 02:38:29;;;;;;;16.92;5.93;;;;;;;3.28;71.58;95926.13;5114268;28;20016;-63
2022/03/30 02:40:54;;;;;;;12.55;6.13;;;;;;;3.28;71.63;95930.44;5113803;27;20040;-63
2022/03/30 02:43:20;;;;;;;12.10;6.50;;;;;;;3.24;71.59;95933.97;5114025;28;20031;-63
2022/03/30 02:45:46;;;;;;;19.95;6.38;;;;;;;3.12;72.53;95935.06;5114096;28;20079;-62
2022/03/30 02:48:18;;;;;;;18.52;7.88;;;;;;;3.12;73.29;95937.63;5113944;28;20047;-63
2022/03/30 02:50:55;;;;;;;17.13;6.28;;;;;;;3.16;73.13;95936.69;5114049;28;20528;-63
2022/03/30 02:53:21;;;;;;;15.35;7.18;;;;;;;3.21;73.08;95944.38;5114047;28;20539;-63
2022/03/30 02:55:47;;;;;;;18.42;11.35;;;;;;;3.24;72.65;95947.78;5113773;28;20034;-63
2022/03/30 02:58:13;;;;;;;25.02;15.02;;;;;;;3.18;72.45;95952.19;5113576;28;20026;-63
2022/03/30 03:00:39;;;;;;;21.30;9.07;;;;;;;3.09;72.10;95943.72;5113682;28;20377;-63
2022/03/30 03:03:07;;;;;;;12.68;9.23;;;;;;;3.14;71.89;95948.81;5113758;28;20023;-63
2022/03/30 03:05:34;;;;;;;10.10;6.50;;;;;;;3.12;71.89;95942.81;5113783;28;20028;-63
2022/03/30 03:08:06;;;;;;;17.73;7.20;;;;;;;3.03;72.08;95943.81;5113803;28;20024;-63
2022/03/30 03:10:34;;;;;;;23.75;8.07;;;;;;;2.94;72.56;95942.25;5113826;28;20023;-63
2022/03/30 03:13:04;;;;;;;11.85;7.20;;;;;;;2.94;72.92;95938.81;5113619;28;20024;-63
2022/03/30 03:15:34;;;;;;;14.90;8.27;;;;;;;2.93;73.18;95924.19;5113777;28;20476;-63
2022/03/30 03:18:01;;;;;;;15.55;7.10;;;;;;;2.81;73.58;95918.38;5113705;28;20260;-63
2022/03/30 03:20:28;;;;;;;18.75;7.72;;;;;;;2.80;73.91;95921.81;5113634;28;20157;-63
2022/03/30 03:22:54;;;;;;;17.33;6.57;;;;;;;2.78;73.07;95919.28;5113555;28;20031;-63
2022/03/30 03:25:19;;;;;;;15.15;6.53;;;;;;;2.75;73.42;95927.09;5113521;28;20106;-63
2022/03/30 03:27:45;;;;;;;12.05;7.20;;;;;;;2.80;73.20;95931.31;5113502;28;20588;-63
2022/03/30 03:30:11;;;;;;;13.45;6.38;;;;;;;2.82;73.32;95925.22;5113522;28;20027;-63
2022/03/30 03:32:37;;;;;;;16.30;7.57;;;;;;;2.86;74.20;95928.63;5113416;28;20011;-63
2022/03/30 03:35:04;;;;;;;15.15;7.68;;;;;;;2.78;74.47;95921.88;5113333;28;20016;-63
2022/03/30 03:37:29;;;;;;;21.35;7.38;;;;;;;2.66;75.29;95919.47;5113589;28;20023;-63
2022/03/30 03:39:55;;;;;;;12.75;7.55;;;;;;;2.69;75.32;95921.16;5113503;28;20035;-63
2022/03/30 03:42:21;;;;;;;15.00;7.70;;;;;;;2.68;74.82;95922.03;5113182;28;20137;-63
2022/03/30 03:44:47;;;;;;;15.02;7.03;;;;;;;2.58;75.18;95929.06;5113468;28;20051;-63
2022/03/30 03:47:12;;;;;;;11.75;6.90;;;;;;;2.66;74.56;95934.97;5113236;28;20047;-63
2022/03/30 03:49:40;;;;;;;15.43;7.60;;;;;;;2.65;73.72;95930.69;5113217;28;20028;-63
2022/03/30 03:52:06;;;;;;;19.23;7.45;;;;;;;2.71;73.86;95935.75;5113264;28;20047;-63
2022/03/30 03:54:32;;;;;;;16.33;7.80;;;;;;;2.73;74.06;95935.72;5113289;28;20012;-63
2022/03/30 03:56:58;;;;;;;16.45;8.70;;;;;;;2.76;76.21;95936.53;5113214;28;20016;-63
2022/03/30 03:59:24;;;;;;;11.45;7.35;;;;;;;2.76;76.21;95936.53;5113190;28;20020;-66
2022/03/30 04:01:50;;;;;;;12.57;7.30;;;;;;;2.90;75.86;95943.19;5113082;28;20023;-67
2022/03/30 04:04:19;;;;;;;16.92;8.13;;;;;;;2.90;76.00;95944.06;5113202;28;20058;-63
2022/03/30 04:06:44;;;;;;;18.42;6.53;;;;;;;2.98;74.85;95951.66;5113196;28;20024;-63
2022/03/30 04:09:10;;;;;;;10.30;6.93;;;;;;;2.93;73.75;95955.19;5114960;28;20031;-63
2022/03/30 04:11:36;;;;;;;15.68;7.07;;;;;;;2.98;74.02;95959.41;5117037;28;20076;-63
2022/03/30 04:14:02;;;;;;;18.65;7.80;;;;;;;3.05;73.85;95964.47;5116972;28;20497;-63
2022/03/30 04:16:28;;;;;;;16.98;7.60;;;;;;;3.11;73.19;95964.38;5117052;28;20024;-63
2022/03/30 04:18:54;;;;;;;14.85;7.60;;;;;;;3.12;73.90;95968.66;5116909;28;20550;-63
2022/03/30 04:21:20;;;;;;;13.07;8.32;;;;;;;3.12;73.76;95966.06;5116806;28;20035;-63
2022/03/30 04:23:45;;;;;;;12.15;7.15;;;;;;;3.20;74.09;95973.69;5116751;28;20024;-63
2022/03/30 04:26:11;;;;;;;17.52;7.70;;;;;;;3.22;73.91;95965.03;5116749;28;20068;-63
2022/03/30 04:28:40;;;;;;;11.65;7.22;;;;;;;3.26;73.02;95973.59;5116637;28;20027;-63
2022/03/30 04:31:11;;;;;;;15.05;7.70;;;;;;;3.31;72.89;95965.75;5116588;28;20107;-63
2022/03/30 04:33:37;;;;;;;17.95;7.78;;;;;;;3.38;73.00;95965.63;5116629;28;20016;-63
2022/03/30 04:36:03;;;;;;;14.43;6.75;;;;;;;3.42;73.02;95961.22;5116485;28;20020;-63
2022/03/30 04:38:30;;;;;;;15.73;6.85;;;;;;;3.51;72.51;95955.03;5116549;28;20470;-62
2022/03/30 04:40:55;;;;;;;13.40;6.97;;;;;;;3.54;71.89;95940.31;5116245;27;20035;-62
2022/03/30 04:43:21;;;;;;;12.30;7.15;;;;;;;3.75;71.59;95950.25;5116484;28;20020;-63
2022/03/30 04:45:47;;;;;;;13.13;7.57;;;;;;;3.96;71.31;95946.38;5116360;28;20107;-63
2022/03/30 04:48:12;;;;;;;15.77;7.10;;;;;;;4.26;71.03;95938.81;5116265;28;20102;-63
2022/03/30 04:50:38;;;;;;;12.85;6.43;;;;;;;4.56;70.13;95940.75;5116348;28;20011;-63
2022/03/30 04:53:06;;;;;;;14.77;6.82;;;;;;;5.06;69.08;95940.38;5116297;28;20024;-63
2022/03/30 04:55:32;;;;;;;11.88;5.80;;;;;;;5.64;68.00;95945.78;5116381;28;20481;-63
2022/03/30 04:57:58;;;;;;;16.55;6.13;;;;;;;6.24;66.53;95938.03;5116163;27;20077;-64
2022/03/30 05:00:23;;;;;;;24.15;6.45;;;;;;;6.90;64.84;95949.00;5116213;28;20080;-63
2022/03/30 05:02:49;;;;;;;12.30;5.65;;;;;;;7.49;61.61;95947.00;5115958;28;20019;-64
2022/03/30 05:05:15;;;;;;;14.63;5.82;;;;;;;8.00;59.47;95949.53;5116095;28;20489;-64
2022/03/30 05:07:41;;;;;;;7.97;5.60;;;;;;;8.46;58.40;95946.94;5116018;28;20028;-64
2022/03/30 05:10:10;;;;;;;8.38;5.38;;;;;;;8.91;57.75;95951.34;5115969;28;20534;-64
2022/03/30 05:12:37;;;;;;;12.80;5.95;;;;;;;9.39;56.90;95951.09;5115786;28;20045;-64
2022/03/30 05:15:03;;;;;;;16.70;6.28;;;;;;;9.91;55.92;95953.22;5115787;28;20072;-64
2022/03/30 05:17:28;;;;;;;15.63;5.75;;;;;;;10.30;53.98;95953.22;5115842;28;20080;-64
2022/03/30 05:19:54;;;;;;;12.88;6.50;;;;;;;10.80;53.23;95962.22;5114067;28;20024;-64
2022/03/30 05:22:20;;;;;;;17.10;6.32;;;;;;;11.30;52.98;95962.44;5115708;28;20089;-64
2022/03/30 05:24:45;;;;;;;17.52;6.63;;;;;;;11.71;52.32;95966.47;5115665;28;20046;-64
2022/03/30 05:27:11;;;;;;;12.88;6.70;;;;;;;12.12;51.78;95962.66;5115500;28;20028;-64
2022/03/30 05:29:37;;;;;;;16.02;6.07;;;;;;;12.63;50.41;95961.69;5115604;28;20016;-63
2022/03/30 05:32:04;;;;;;;15.32;5.68;;;;;;;13.17;48.86;95962.19;5115746;28;20103;-64
2022/03/30 05:34:29;;;;;;;17.92;6.40;;;;;;;13.64;48.57;95957.72;5115486;28;20493;-64
2022/03/30 05:36:58;;;;;;;10.57;6.22;;;;;;;14.28;46.70;95960.94;5115394;28;20020;-64
2022/03/30 05:39:24;;;;;;;13.15;6.30;;;;;;;14.84;44.93;95960.09;5115370;28;20028;-64
2022/03/30 05:41:50;;;;;;;13.32;5.93;;;;;;;15.37;44.55;95966.38;5115008;27;20039;-63
2022/03/30 05:44:16;;;;;;;17.70;7.05;;;;;;;15.80;42.95;95975.81;5115271;28;20073;-64
2022/03/30 05:46:41;;;;;;;15.20;7.60;;;;;;;16.07;41.15;95968.78;5115195;28;20024;-64
2022/03/30 05:49:07;;;;;;;10.48;6.43;;;;;;;16.41;40.12;95977.78;5115356;28;20439;-64
2022/03/30 05:51:33;;;;;;;14.68;7.25;;;;;;;16.73;38.93;95970.31;5115114;28;20016;-64
2022/03/30 05:53:58;;;;;;;11.93;6.32;;;;;;;17.15;38.26;95978.75;5115057;28;20024;-64
2022/03/30 05:56:59;;;;;;;14.60;6.43;;;;;;;17.56;37.88;95978.44;5115100;28;20023;-64
2022/03/30 05:59:11;;;;;;;12.35;6.28;;;;;;;17.98;39.30;95982.38;5115080;28;20023;-64
2022/03/30 06:01:38;;;;;;;16.75;6.65;;;;;;;18.46;39.52;95975.19;5114989;28;20034;-64
2022/03/30 06:04:04;;;;;;;22.35;7.18;;;;;;;18.80;37.46;95976.00;5114871;28;20019;-64
2022/03/30 06:06:30;;;;;;;17.42;7.10;;;;;;;19.02;36.91;95976.06;5114777;28;20378;-64
2022/03/30 06:08:55;;;;;;;13.77;7.20;;;;;;;19.26;36.22;95977.72;5114799;28;20030;-64
2022/03/30 06:11:21;;;;;;;18.42;7.53;;;;;;;19.35;35.88;95974.28;5114744;28;20058;-64
2022/03/30 06:13:46;;;;;;;18.08;7.47;;;;;;;19.40;35.77;95976.56;5114684;28;20016;-64
2022/03/30 06:16:15;;;;;;;14.65;7.05;;;;;;;19.60;35.00;95966.94;5114648;28;20024;-64
2022/03/30 06:18:43;;;;;;;14.48;6.00;;;;;;;19.94;34.83;95969.41;5114602;28;20019;-64
2022/03/30 06:21:10;;;;;;;15.98;6.95;;;;;;;20.35;34.17;95970.47;5114512;28;20019;-64
2022/03/30 06:23:35;;;;;;;13.65;7.53;;;;;;;20.29;33.94;95974.50;5114450;28;20024;-64
2022/03/30 06:26:02;;;;;;;9.82;6.80;;;;;;;19.97;35.98;95973.59;5114419;28;20031;-64
2022/03/30 06:28:29;;;;;;;12.85;7.53;;;;;;;19.25;36.47;95970.72;5114369;28;20032;-64
2022/03/30 06:30:55;;;;;;;15.63;6.95;;;;;;;19.13;36.52;95965.47;5113778;28;20473;-64
2022/03/30 06:33:21;;;;;;;17.02;7.57;;;;;;;19.03;37.12;95969.81;5114260;28;20522;-64
2022/03/30 06:35:46;;;;;;;17.48;6.95;;;;;;;18.98;37.25;95970.16;5114236;28;20024;-64
2022/03/30 06:38:12;;;;;;;13.05;7.18;;;;;;;19.30;36.31;95966.69;5114180;28;20020;-64
2022/03/30 06:40:38;;;;;;;10.65;6.85;;;;;;;19.76;35.37;95968.28;5113977;28;20114;-64
2022/03/30 06:43:04;;;;;;;11.23;7.05;;;;;;;20.22;34.37;95968.84;5114149;28;20035;-64
2022/03/30 06:45:30;;;;;;;14.25;6.88;;;;;;;20.53;34.17;95966.19;5114028;28;20036;-64
2022/03/30 06:47:56;;;;;;;22.20;7.57;;;;;;;20.73;33.78;95965.38;5114035;28;20380;-64
2022/03/30 06:50:21;;;;;;;13.30;7.00;;;;;;;20.93;32.88;95963.66;5114011;28;20023;-64
2022/03/30 06:52:47;;;;;;;16.90;7.25;;;;;;;21.11;32.88;95978.94;5113925;28;20076;-64
2022/03/30 06:55:14;;;;;;;18.48;6.47;;;;;;;21.06;32.84;95974.03;5113972;28;20051;-65
2022/03/30 06:57:42;;;;;;;13.55;6.53;;;;;;;20.48;33.45;95981.69;5113999;28;20103;-64
2022/03/30 07:00:12;;;;;;;13.57;7.63;;;;;;;20.17;34.33;95987.84;5112677;28;20431;-64
2022/03/30 07:02:38;;;;;;;17.38;7.65;;;;;;;19.92;33.93;95989.91;5113708;28;20118;-64
2022/03/30 07:05:07;;;;;;;15.25;6.72;;;;;;;19.78;33.83;95990.25;5113727;28;20016;-64
2022/03/30 07:10:31;;;;;;;17.85;6.50;;;;;;;20.08;32.90;95993.94;5113767;28;20039;-64
2022/03/30 07:13:03;;;;;;;19.65;7.13;;;;;;;20.58;31.89;95984.38;5113923;28;20028;-65
2022/03/30 07:15:30;;;;;;;20.45;6.60;;;;;;;20.84;31.06;95991.88;5113758;28;20024;-64
2022/03/30 07:18:00;;;;;;;19.60;6.75;;;;;;;20.73;31.48;95999.94;5113630;28;20051;-65
2022/03/30 07:20:32;;;;;;;19.02;6.93;;;;;;;20.22;33.42;95990.09;5113598;28;20036;-65
2022/03/30 07:23:02;;;;;;;15.25;7.03;;;;;;;20.43;32.25;95992.72;5113699;28;20035;-65
2022/03/30 07:25:34;;;;;;;11.15;6.20;;;;;;;20.69;31.28;96002.03;5113621;28;20035;-64
2022/03/30 07:28:02;;;;;;;14.38;6.45;;;;;;;20.43;33.81;96005.13;5113456;28;20024;-65
2022/03/30 07:30:28;;;;;;;16.08;7.18;;;;;;;20.47;33.09;95997.75;5113407;28;20047;-65
2022/03/30 07:33:01;;;;;;;11.77;7.30;;;;;;;20.78;32.62;95997.72;5113587;28;20066;-65
2022/03/30 07:35:33;;;;;;;14.27;7.43;;;;;;;20.65;31.08;96006.75;5113494;28;20507;-65
2022/03/30 07:38:00;;;;;;;18.70;8.02;;;;;;;20.53;33.34;96006.03;5113364;28;20084;-65
2022/03/30 07:40:29;;;;;;;14.75;7.53;;;;;;;20.73;31.53;96011.41;5112929;28;20024;-65
2022/03/30 07:42:56;;;;;;;19.17;7.07;;;;;;;20.58;33.69;96016.25;5115050;28;20039;-64
2022/03/30 07:45:23;;;;;;;15.73;7.68;;;;;;;20.75;33.68;96011.28;5117650;28;20068;-65
2022/03/30 07:47:54;;;;;;;18.40;7.93;;;;;;;20.67;32.21;96009.28;5117509;28;20056;-65
2022/03/30 07:50:20;;;;;;;14.18;7.03;;;;;;;20.66;32.11;96005.81;5117320;28;20075;-65
2022/03/30 07:52:46;;;;;;;17.08;7.60;;;;;;;20.42;32.83;95998.16;5117417;28;20043;-65
2022/03/30 07:55:13;;;;;;;16.20;7.25;;;;;;;20.53;31.30;96000.72;5117302;28;20020;-65
2022/03/30 07:57:42;;;;;;;14.27;7.70;;;;;;;20.48;32.78;96007.41;5117203;28;20039;-65
2022/03/30 08:00:17;;;;;;;17.83;7.20;;;;;;;20.12;34.25;96007.78;5117350;28;20024;-65
2022/03/30 08:02:48;;;;;;;17.63;7.43;;;;;;;20.02;33.96;96008.56;5117145;28;20055;-65
2022/03/30 08:05:14;;;;;;;;;;;;;;;19.86;33.34;96011.66;5116353;28;20028;-65
2022/03/30 08:07:50;;;;;;;15.75;7.93;;;;;;;19.86;35.03;96010.84;5117173;28;19907;-65
2022/03/30 08:10:17;;;;;;;16.73;7.13;;;;;;;19.82;34.69;96010.22;5117130;28;20034;-64
2022/03/30 08:12:49;;;;;;;17.30;7.53;;;;;;;19.92;33.56;96010.28;5117047;28;20023;-65
2022/03/30 08:15:15;;;;;;;12.98;7.22;;;;;;;19.98;34.48;96012.44;5117073;28;20055;-65
2022/03/30 08:17:50;;;;;;;14.98;7.25;;;;;;;19.98;34.50;96014.25;5116924;28;20012;-64
2022/03/30 08:23:15;;;;;;;12.65;7.53;;;;;;;20.35;34.38;96005.84;5116835;28;20053;-65
2022/03/30 08:25:41;;;;;;;15.57;7.10;;;;;;;20.48;34.57;96005.59;5116930;28;20023;-65
2022/03/30 08:28:07;;;;;;;13.00;7.25;;;;;;;20.77;34.31;96007.50;5116727;28;20493;-65
2022/03/30 08:30:34;;;;;;;12.63;7.22;;;;;;;20.90;32.49;96006.47;5116755;28;20478;-65
2022/03/30 08:33:02;;;;;;;17.67;7.38;;;;;;;20.60;34.99;96005.50;5116665;28;20401;-64
2022/03/30 08:35:29;;;;;;;15.05;7.10;;;;;;;20.69;32.02;96013.50;5116509;28;20023;-65
2022/03/30 08:37:55;;;;;;;13.90;7.03;;;;;;;20.86;29.96;96013.00;5116552;28;20164;-64
2022/03/30 08:40:21;;;;;;;12.95;6.82;;;;;;;20.62;32.29;96012.34;5116540;28;20057;-64
2022/03/30 08:42:47;;;;;;;13.27;6.93;;;;;;;20.62;33.73;95999.06;5116398;28;20031;-65
2022/03/30 08:45:12;;;;;;;21.00;7.70;;;;;;;20.48;35.12;95994.97;5116406;28;20020;-64
2022/03/30 08:47:38;;;;;;;17.92;7.22;;;;;;;20.75;33.00;95980.25;5116524;28;20020;-64
2022/03/30 08:50:04;;;;;;;12.90;7.13;;;;;;;21.11;33.11;95982.44;5116450;28;20054;-65
2022/03/30 08:52:30;;;;;;;13.82;6.35;;;;;;;21.39;33.37;95979.94;5116310;28;20019;-64
2022/03/30 08:54:57;;;;;;;16.20;7.53;;;;;;;21.59;32.32;95982.59;5115393;28;20110;-65
2022/03/30 08:57:23;;;;;;;14.23;6.68;;;;;;;21.58;29.82;95964.94;5116295;28;20102;-65
2022/03/30 09:00:03;;;;;;;14.63;7.20;;;;;;;21.64;30.07;95972.34;5116287;28;20095;-65
2022/03/30 09:02:37;;;;;;;17.65;7.25;;;;;;;21.81;30.14;95956.69;5116169;28;20473;-65
2022/03/30 09:05:15;;;;;;;13.30;7.00;;;;;;;21.65;30.33;95966.06;5116250;28;20501;-64
2022/03/30 09:07:48;;;;;;;12.85;7.22;;;;;;;21.44;30.45;95959.09;5116001;28;20105;-65
2022/03/30 09:10:22;;;;;;;13.73;7.57;;;;;;;21.31;31.85;95955.88;5116161;28;20031;-64
2022/03/30 09:12:50;;;;;;;18.38;6.95;;;;;;;20.82;33.53;95957.47;5115841;28;20023;-64
2022/03/30 09:15:17;;;;;;;19.35;8.23;;;;;;;20.86;32.37;95954.53;5116222;28;20358;-64
2022/03/30 09:17:44;;;;;;;19.10;7.13;;;;;;;20.86;33.34;95950.03;5115940;28;20016;-65
2022/03/30 09:20:23;;;;;;;11.65;7.80;;;;;;;20.97;31.77;95946.44;5115690;28;20050;-65
2022/03/30 09:22:53;;;;;;;16.33;7.93;;;;;;;20.91;30.53;95947.00;5115795;28;20035;-65
2022/03/30 09:25:19;;;;;;;13.30;7.13;;;;;;;20.86;33.32;95939.41;5115711;28;20015;-63
2022/03/30 09:27:46;;;;;;;12.63;7.00;;;;;;;20.80;33.04;95937.31;5115788;28;20015;-65
2022/03/30 09:30:17;;;;;;;17.20;7.35;;;;;;;21.01;32.00;95942.53;5115652;28;20020;-65
2022/03/30 09:32:44;;;;;;;14.00;7.47;;;;;;;20.83;33.06;95942.38;5115561;28;20019;-64
2022/03/30 09:35:25;;;;;;;10.90;6.22;;;;;;;20.94;32.18;95938.75;5115402;28;20019;-64
2022/03/30 09:38:03;;;;;;;14.27;7.55;;;;;;;20.94;30.80;95923.66;5115560;28;20431;-65
2022/03/30 09:40:41;;;;;;;14.98;7.63;;;;;;;21.29;32.18;95928.56;5115274;28;20026;-64
2022/03/30 09:43:16;;;;;;;17.55;7.50;;;;;;;21.16;31.93;95918.22;5115331;27;20126;-64
2022/03/30 09:45:42;;;;;;;15.52;6.93;;;;;;;21.06;30.41;95934.16;5115280;28;20396;-64
2022/03/30 09:48:20;;;;;;;14.60;7.38;;;;;;;20.61;30.59;95917.69;5115206;28;20110;-64
2022/03/30 09:50:53;;;;;;;13.18;7.07;;;;;;;20.57;33.22;95916.28;5115246;28;20031;-64
2022/03/30 09:53:22;;;;;;;14.85;7.30;;;;;;;20.74;32.31;95916.59;5115189;28;20027;-64
2022/03/30 09:55:53;;;;;;;17.45;7.68;;;;;;;20.90;32.13;95903.66;5115216;28;20355;-65
2022/03/30 09:58:21;;;;;;;10.13;7.00;;;;;;;21.03;31.97;95907.84;5115117;28;20497;-64
2022/03/30 10:01:17;;;;;;;15.23;7.80;;;;;;;20.78;30.93;95908.22;5115045;28;20027;-64
2022/03/30 10:03:59;;;;;;;15.95;7.70;;;;;;;20.75;32.77;95912.97;5100075;28;20502;-65
2022/03/30 10:06:31;;;;;;;18.02;7.85;;;;;;;20.64;31.32;95893.50;5114945;28;20039;-63
2022/03/30 10:08:57;;;;;;;11.65;6.60;;;;;;;20.57;31.64;95882.59;5114883;28;20032;-64
2022/03/30 10:11:25;;;;;;;13.57;7.05;;;;;;;20.65;30.88;95884.56;5114809;28;20132;-64
2022/03/30 10:13:55;;;;;;;14.05;7.18;;;;;;;20.68;29.77;95886.13;5114760;28;20077;-64
2022/03/30 10:16:22;;;;;;;16.88;7.55;;;;;;;20.51;29.85;95875.19;5114764;28;20032;-64
2022/03/30 10:18:50;;;;;;;15.52;7.80;;;;;;;20.48;31.17;95874.59;5114594;28;20023;-64
2022/03/30 10:21:24;;;;;;;15.73;7.53;;;;;;;20.58;30.96;95864.84;5114421;28;20027;-64
2022/03/30 10:24:14;;;;;;;20.42;7.93;;;;;;;21.06;31.45;95865.88;5114631;28;20031;-64
2022/03/30 10:26:58;;;;;;;17.70;7.68;;;;;;;21.26;30.64;95868.53;5114578;28;20035;-64
2022/03/30 10:29:27;;;;;;;14.70;7.15;;;;;;;21.25;28.97;95858.03;5114381;28;20027;-64
2022/03/30 10:32:18;;;;;;;19.05;7.68;;;;;;;21.31;30.73;95862.78;5114375;27;20054;-64
2022/03/30 10:35:03;;;;;;;14.88;7.82;;;;;;;21.26;30.56;95867.69;5114394;28;20035;-64
2022/03/30 10:37:42;;;;;;;14.15;7.07;;;;;;;21.20;30.04;95874.41;5114316;28;20058;-64
2022/03/30 10:40:16;;;;;;;12.98;6.90;;;;;;;21.14;29.01;95877.63;5114199;28;20408;-64
2022/03/30 10:42:47;;;;;;;12.95;6.80;;;;;;;20.91;29.00;95861.97;5114288;28;20043;-64
2022/03/30 10:45:30;;;;;;;15.82;7.82;;;;;;;20.44;30.13;95863.44;5114116;28;20031;-64
2022/03/30 10:48:16;;;;;;;13.85;7.80;;;;;;;20.35;31.60;95861.59;5114152;28;20407;-64
2022/03/30 10:50:49;;;;;;;18.02;7.75;;;;;;;20.76;29.21;95853.53;5114164;28;20118;-64
2022/03/30 10:53:29;;;;;;;21.85;8.52;;;;;;;21.09;30.81;95854.13;5114081;28;20024;-64
2022/03/30 10:56:15;;;;;;;;;;;;;;;21.34;28.69;95855.34;5114466;28;20023;-64
2022/03/30 10:58:50;;;;;;;17.30;7.57;;;;;;;21.43;30.18;95842.19;5113832;28;19964;-64
2022/03/30 11:01:39;;;;;;;17.55;7.05;;;;;;;21.62;28.24;95848.44;5113908;28;20026;-64
2022/03/30 11:04:11;;;;;;;12.40;7.43;;;;;;;21.55;27.79;95849.00;5113994;28;20023;-64
2022/03/30 11:06:40;;;;;;;13.52;7.35;;;;;;;21.43;28.89;95834.22;5113959;28;20018;-64
2022/03/30 11:09:09;;;;;;;12.18;7.35;;;;;;;21.02;28.17;95848.53;5113940;28;20093;-64
2022/03/30 11:11:44;;;;;;;13.82;7.28;;;;;;;20.91;29.24;95840.69;5113835;28;20104;-64
2022/03/30 11:14:35;;;;;;;19.85;7.68;;;;;;;20.87;29.58;95836.63;5113755;28;20059;-64
2022/03/30 11:17:10;;;;;;;19.67;7.28;;;;;;;20.80;27.95;95839.00;5113333;28;20500;-64
2022/03/30 11:19:49;;;;;;;19.58;7.43;;;;;;;20.94;28.98;95829.78;5113705;28;20519;-64
2022/03/30 11:22:32;;;;;;;17.40;7.55;;;;;;;21.26;28.34;95833.13;5113505;28;20120;-64
2022/03/30 11:25:18;;;;;;;13.02;7.75;;;;;;;21.51;28.84;95830.81;5113544;28;20034;-64
2022/03/30 11:27:48;;;;;;;20.10;7.72;;;;;;;21.48;28.86;95813.31;5113614;28;20350;-64
2022/03/30 11:30:18;;;;;;;13.55;7.63;;;;;;;21.13;28.65;95802.34;5113575;28;20473;-64
2022/03/30 11:32:50;;;;;;;12.88;7.18;;;;;;;20.88;29.73;95803.72;5113562;28;20077;-63
2022/03/30 11:35:18;;;;;;;15.57;8.00;;;;;;;21.10;28.78;95791.16;5113466;28;20024;-65
2022/03/30 11:38:04;;;;;;;17.33;7.68;;;;;;;21.20;28.34;95789.31;5113513;28;20019;-63
2022/03/30 11:40:33;;;;;;;17.73;7.20;;;;;;;21.03;27.96;95793.53;5111992;28;20028;-64
2022/03/30 11:42:59;;;;;;;18.67;7.50;;;;;;;20.81;28.49;95801.66;5113371;28;20023;-64
2022/03/30 11:45:27;;;;;;;14.80;7.70;;;;;;;20.70;28.55;95783.19;5112090;28;20076;-64